Zamokta, Russia
Current Conditions -  °F | °C
As of 12:00 AM on Saturday 29 Nov 2014 (Local Time) from UIUU Reporting Station
Haze Haze  
Wind Chill:   Ceiling: 10000
Heat Index:   Visibility: 3mi
Dew Point: -8°   Wind: 2mph
Humidity: 72%   Direction: 70°ENE
Pressure: 30.06"   Gusts: NA
Location:  52.77°N, 109.97°E
Report Text: UIUU 281600Z 07001MPS 5000 BR OVC100 M18/M22 Q1018 NOSIG RMKQFE719/0959 26410560
Loading
Personal Weather Stations






























Interactive Weather Map New forecast layout! Learn more

10-Day Weather Forecast

Advertisements
Track Severe Weather on mobile